Time;durP1;ratioP1;P1;durP2;ratioP2;P2;SDS_P1;SDS_P2;PMS_P1;PMS_P2;Temp;Humidity;BMP_temperature;BMP_pressure;BME280_temperature;BME280_humidity;BME280_pressure;Samples;Min_cycle;Max_cycle;Signal;HPM_P1;HPM_P2
2022/01/24 00:01:15;;;;;;;2.97;1.20;;;4.00;99.90;;;;;;5097530;28;20428;-58
2022/01/24 00:03:42;;;;;;;2.50;1.10;;;4.00;99.90;;;;;;5097299;28;20418;-56
2022/01/24 00:06:12;;;;;;;2.17;1.20;;;4.00;99.90;;;;;;5097498;28;20445;-55
2022/01/24 00:08:39;;;;;;;2.90;1.10;;;4.00;99.90;;;;;;5096950;28;20517;-56
2022/01/24 00:11:07;;;;;;;3.03;1.20;;;4.00;99.90;;;;;;5097585;28;20433;-56
2022/01/24 00:16:33;;;;;;;3.05;1.30;;;3.90;99.90;;;;;;5097025;28;20395;-55
2022/01/24 00:27:13;;;;;;;2.42;1.08;;;3.50;99.90;;;;;;5096791;28;20852;-57
2022/01/24 00:29:42;;;;;;;2.40;1.10;;;3.40;99.90;;;;;;5096662;28;20938;-56
2022/01/24 00:32:09;;;;;;;2.30;1.20;;;3.40;99.90;;;;;;5096836;28;20500;-56
2022/01/24 00:34:36;;;;;;;1.90;1.00;;;3.30;99.90;;;;;;5096612;28;20514;-56
2022/01/24 00:37:03;;;;;;;1.90;1.00;;;3.30;99.90;;;;;;5096509;28;20429;-56
2022/01/24 00:39:31;;;;;;;2.53;1.20;;;3.30;99.90;;;;;;5096828;28;20406;-57
2022/01/24 00:42:10;;;;;;;1.90;1.00;;;3.30;99.90;;;;;;5096789;28;20774;-56
2022/01/24 00:44:49;;;;;;;2.45;1.30;;;3.20;99.90;;;;;;5096854;28;20422;-58
2022/01/24 00:47:24;;;;;;;2.27;1.03;;;3.20;99.90;;;;;;5096713;28;20453;-62
2022/01/24 00:52:59;;;;;;;2.38;1.20;;;3.10;99.90;;;;;;5096937;28;20429;-57
2022/01/24 00:55:26;;;;;;;2.93;1.20;;;3.00;99.90;;;;;;5096247;28;20870;-57
2022/01/24 00:57:53;;;;;;;2.50;1.30;;;3.10;99.90;;;;;;5096725;28;20473;-55
2022/01/24 01:00:20;;;;;;;2.38;1.20;;;3.00;99.90;;;;;;5096581;28;20422;-55
2022/01/24 01:02:49;;;;;;;1.60;1.08;;;3.00;99.90;;;;;;5096449;28;20426;-56
2022/01/24 01:05:32;;;;;;;1.85;1.00;;;3.00;99.90;;;;;;5095842;28;20441;-56
2022/01/24 01:18:04;;;;;;;3.20;1.30;;;3.00;99.90;;;;;;5096331;28;20527;-56
2022/01/24 01:19:04;;;;;;;1.85;1.10;;;3.30;99.90;;;;;;5095359;28;20401;-56
2022/01/24 01:21:31;;;;;;;1.83;0.93;;;3.40;99.90;;;;;;5095757;28;20524;-56
2022/01/24 01:24:00;;;;;;;3.15;1.02;;;3.40;99.90;;;;;;5095934;28;20453;-56
2022/01/24 01:26:32;;;;;;;2.00;1.10;;;3.30;99.90;;;;;;5096082;28;20892;-56
2022/01/24 01:29:04;;;;;;;2.93;1.10;;;3.20;99.90;;;;;;5095931;28;20433;-55
2022/01/24 01:31:41;;;;;;;2.60;1.30;;;3.20;99.90;;;;;;5096010;28;20443;-54
2022/01/24 01:34:23;;;;;;;2.00;1.20;;;3.10;99.90;;;;;;5094490;28;20848;-56
2022/01/24 01:37:29;;;;;;;1.88;1.10;;;3.20;99.90;;;;;;5094096;28;20424;-56
2022/01/24 01:54:20;;;;;;;2.33;1.20;;;2.80;99.90;;;;;;5058954;28;20493;-55
2022/01/24 01:56:47;;;;;;;2.70;1.40;;;2.80;99.90;;;;;;5093305;28;20789;-55
2022/01/24 01:59:14;;;;;;;3.00;1.60;;;2.80;99.90;;;;;;5093940;28;20457;-55
2022/01/24 02:01:41;;;;;;;3.80;1.42;;;2.80;99.90;;;;;;5094955;28;20449;-54
2022/01/24 02:04:08;;;;;;;4.15;1.60;;;2.70;99.90;;;;;;5094194;28;20469;-56
2022/01/24 02:06:38;;;;;;;3.35;1.70;;;2.70;99.90;;;;;;5095775;28;20453;-55
2022/01/24 02:09:07;;;;;;;3.30;1.70;;;2.70;99.90;;;;;;5103170;28;20934;-57
2022/01/24 02:11:34;;;;;;;3.28;1.90;;;2.80;99.90;;;;;;5098393;28;20844;-56
2022/01/24 02:14:03;;;;;;;4.30;1.80;;;2.80;99.90;;;;;;5095355;28;20521;-57
2022/01/24 02:16:38;;;;;;;3.83;2.30;;;2.90;99.90;;;;;;5095014;28;20446;-55
2022/01/24 02:19:14;;;;;;;3.00;1.70;;;2.80;99.90;;;;;;5095111;28;20910;-55
2022/01/24 02:21:47;;;;;;;3.30;2.20;;;2.80;99.90;;;;;;5095008;28;20422;-56
2022/01/24 02:24:17;;;;;;;2.13;1.73;;;2.80;99.90;;;;;;5095320;28;20455;-56
2022/01/24 02:26:48;;;;;;;2.95;1.70;;;2.80;99.90;;;;;;5095133;28;20716;-54
2022/01/24 02:29:24;;;;;;;2.65;1.50;;;2.80;99.90;;;;;;5095488;28;20440;-55
2022/01/24 02:31:53;;;;;;;3.60;1.80;;;2.80;99.90;;;;;;5095278;28;20424;-56
2022/01/24 02:34:29;;;;;;;3.40;1.90;;;2.80;99.90;;;;;;5095078;28;20437;-56
2022/01/24 02:37:00;;;;;;;4.22;1.90;;;2.70;99.90;;;;;;5094890;28;20429;-56
2022/01/24 02:50:43;;;;;;;2.70;1.50;;;3.00;99.90;;;;;;5093710;28;20771;-55
2022/01/24 02:53:11;;;;;;;4.20;1.70;;;3.00;99.90;;;;;;5093446;28;20422;-55
2022/01/24 02:55:40;;;;;;;2.63;1.50;;;2.90;99.90;;;;;;5093582;28;20479;-57
2022/01/24 02:58:07;;;;;;;2.20;1.70;;;2.80;99.90;;;;;;5093400;28;20460;-56
2022/01/24 03:00:34;;;;;;;3.20;1.85;;;2.80;99.90;;;;;;5093642;28;20875;-57
2022/01/24 03:03:03;;;;;;;3.40;1.90;;;2.80;99.90;;;;;;5093530;28;20460;-58
2022/01/24 03:05:30;;;;;;;3.95;1.80;;;2.60;99.90;;;;;;5094522;28;20836;-56
2022/01/24 03:07:57;;;;;;;4.10;2.00;;;2.40;99.90;;;;;;5094701;28;20457;-55
2022/01/24 03:10:28;;;;;;;3.40;2.00;;;2.40;99.90;;;;;;5094524;28;20522;-57
2022/01/24 03:13:10;;;;;;;3.40;2.05;;;2.40;99.90;;;;;;5094627;28;20566;-57
2022/01/24 03:15:38;;;;;;;3.77;2.00;;;2.40;99.90;;;;;;5094606;28;20534;-56
2022/01/24 03:18:05;;;;;;;3.67;1.98;;;2.50;99.90;;;;;;5097783;28;20463;-57
2022/01/24 03:20:32;;;;;;;3.40;1.90;;;2.70;99.90;;;;;;5098502;28;20833;-58
2022/01/24 03:22:59;;;;;;;3.22;2.10;;;2.80;99.90;;;;;;5098172;28;20425;-54
2022/01/24 03:25:28;;;;;;;3.05;1.52;;;2.90;99.90;;;;;;5098482;28;20706;-55
2022/01/24 03:27:56;;;;;;;2.88;1.58;;;2.90;99.90;;;;;;5098682;28;20461;-56
2022/01/24 03:30:24;;;;;;;2.55;1.63;;;2.80;99.90;;;;;;5097949;28;20465;-56
2022/01/24 03:32:51;;;;;;;2.75;1.40;;;2.80;99.90;;;;;;5098025;28;21011;-54
2022/01/24 03:35:18;;;;;;;3.50;1.60;;;2.70;99.90;;;;;;5098191;28;20483;-54
2022/01/24 03:37:45;;;;;;;3.58;1.70;;;2.60;99.90;;;;;;5097950;28;20479;-54
2022/01/24 03:40:12;;;;;;;3.22;1.33;;;2.50;99.90;;;;;;5097825;28;20849;-56
2022/01/24 03:42:41;;;;;;;3.25;1.40;;;2.40;99.90;;;;;;5098146;28;20469;-56
2022/01/24 03:45:10;;;;;;;3.22;1.60;;;2.20;99.90;;;;;;5096816;28;20570;-54
2022/01/24 03:47:57;;;;;;;3.60;1.80;;;2.10;99.90;;;;;;5097209;28;20931;-55
2022/01/24 03:50:24;;;;;;;2.30;1.20;;;2.10;99.90;;;;;;5096399;28;20653;-54
2022/01/24 03:52:51;;;;;;;3.10;1.40;;;2.30;99.90;;;;;;5097026;28;20461;-56
2022/01/24 03:55:18;;;;;;;3.00;1.70;;;2.30;99.90;;;;;;5096694;28;20449;-54
2022/01/24 03:57:46;;;;;;;3.92;1.50;;;2.20;99.90;;;;;;5096973;28;20889;-56
2022/01/24 04:00:14;;;;;;;2.42;1.40;;;2.20;99.90;;;;;;5096819;28;20494;-54
2022/01/24 04:02:41;;;;;;;2.45;1.50;;;2.20;99.90;;;;;;5097340;28;20797;-56
2022/01/24 04:05:09;;;;;;;3.17;1.20;;;2.10;99.90;;;;;;5097916;28;20512;-54
2022/01/24 04:07:36;;;;;;;2.58;1.58;;;2.10;99.90;;;;;;5097315;28;20454;-55
2022/01/24 04:10:07;;;;;;;4.70;1.90;;;2.10;99.90;;;;;;5097607;28;20441;-55
2022/01/24 04:12:36;;;;;;;3.85;1.73;;;2.00;99.90;;;;;;5097630;28;20844;-56
2022/01/24 04:15:24;;;;;;;2.90;1.63;;;2.00;99.90;;;;;;5097574;28;20725;-56
2022/01/24 04:18:09;;;;;;;3.50;1.50;;;1.90;99.90;;;;;;5097525;28;20494;-56
2022/01/24 04:23:21;;;;;;;2.80;1.40;;;1.80;99.90;;;;;;5096856;28;20855;-55
2022/01/24 04:25:48;;;;;;;4.15;1.77;;;1.80;99.90;;;;;;5097065;28;20437;-55
2022/01/24 04:28:15;;;;;;;3.17;1.65;;;1.70;99.90;;;;;;5096558;28;20460;-53
2022/01/24 04:30:43;;;;;;;3.50;1.60;;;1.80;99.90;;;;;;5096972;28;20438;-52
2022/01/24 04:33:10;;;;;;;3.80;1.70;;;1.80;99.90;;;;;;5096643;28;20461;-55
2022/01/24 04:35:37;;;;;;;4.50;2.45;;;1.80;99.90;;;;;;5097148;28;20486;-52
2022/01/24 04:38:04;;;;;;;3.78;2.08;;;1.70;99.90;;;;;;5096681;28;21062;-55
2022/01/24 04:40:31;;;;;;;3.80;2.20;;;1.60;99.90;;;;;;5096636;28;20932;-54
2022/01/24 04:43:18;;;;;;;3.35;2.05;;;1.70;99.90;;;;;;5096403;28;20759;-56
2022/01/24 04:46:07;;;;;;;3.60;1.90;;;1.80;99.90;;;;;;5097025;28;20721;-56
2022/01/24 04:51:33;;;;;;;3.30;1.80;;;1.80;99.90;;;;;;5095824;28;20860;-55
2022/01/24 04:56:47;;;;;;;8.13;4.10;;;2.00;99.90;;;;;;5078717;28;20872;-59
2022/01/24 04:59:14;;;;;;;7.90;4.77;;;1.90;99.90;;;;;;5096183;28;20437;-55
2022/01/24 05:01:42;;;;;;;8.20;4.70;;;1.90;99.90;;;;;;5095448;28;20453;-56
2022/01/24 05:04:09;;;;;;;8.43;3.58;;;1.80;99.90;;;;;;5094499;28;20946;-56
2022/01/24 05:06:36;;;;;;;6.70;2.50;;;1.80;99.90;;;;;;5095155;28;20808;-56
2022/01/24 05:09:04;;;;;;;3.95;1.95;;;1.70;99.90;;;;;;5095188;28;20461;-53
2022/01/24 05:11:38;;;;;;;5.97;2.65;;;1.70;99.90;;;;;;5095364;28;20429;-53
2022/01/24 05:25:09;;;;;;;4.05;2.28;;;1.90;99.90;;;;;;5095666;28;20501;-51
2022/01/24 05:27:36;;;;;;;4.90;2.77;;;2.00;99.90;;;;;;5095511;28;20506;-55
2022/01/24 05:30:04;;;;;;;6.05;2.70;;;1.80;99.90;;;;;;5095436;28;20465;-52
2022/01/24 05:32:33;;;;;;;4.63;2.90;;;1.80;99.90;;;;;;5095324;28;20483;-52
2022/01/24 05:35:00;;;;;;;5.70;3.00;;;1.80;99.90;;;;;;5095389;28;20466;-52
2022/01/24 05:37:27;;;;;;;4.43;2.23;;;1.70;99.90;;;;;;5093906;28;20504;-55
2022/01/24 05:39:53;;;;;;;4.80;2.97;;;1.50;99.90;;;;;;5094442;28;20476;-53
2022/01/24 05:42:21;;;;;;;5.17;3.03;;;1.50;99.90;;;;;;5094665;28;20455;-54
2022/01/24 05:44:49;;;;;;;4.77;2.67;;;1.40;99.90;;;;;;5094842;28;20880;-54
2022/01/24 05:47:16;;;;;;;5.60;2.63;;;1.50;99.90;;;;;;5094308;28;20483;-55
2022/01/24 05:49:45;;;;;;;5.50;2.20;;;1.50;99.90;;;;;;5094553;28;20505;-55
2022/01/24 05:52:12;;;;;;;4.88;2.80;;;1.40;99.90;;;;;;5094896;28;20486;-55
2022/01/24 05:54:41;;;;;;;5.43;2.50;;;1.50;99.90;;;;;;5094110;28;20457;-52
2022/01/24 05:57:08;;;;;;;5.10;2.30;;;1.50;99.90;;;;;;5094049;28;20434;-56
2022/01/24 05:59:36;;;;;;;5.40;2.77;;;1.50;99.90;;;;;;5093769;28;20521;-53
2022/01/24 06:02:06;;;;;;;5.28;2.00;;;1.60;99.90;;;;;;5092594;28;21342;-54
2022/01/24 06:04:36;;;;;;;4.22;2.15;;;1.60;99.90;;;;;;5093888;28;20433;-53
2022/01/24 06:07:04;;;;;;;4.78;2.00;;;1.80;99.90;;;;;;5094399;28;20840;-54
2022/01/24 06:09:31;;;;;;;4.20;2.60;;;1.90;99.90;;;;;;5091786;28;20476;-54
2022/01/24 06:11:58;;;;;;;5.13;2.47;;;1.90;99.90;;;;;;5092256;28;20710;-52
2022/01/24 06:14:25;;;;;;;4.60;2.30;;;1.90;99.90;;;;;;5092348;28;20453;-54
2022/01/24 06:16:52;;;;;;;6.47;2.63;;;1.90;99.90;;;;;;5093061;28;20456;-52
2022/01/24 06:19:20;;;;;;;4.57;2.75;;;1.90;99.90;;;;;;5093698;28;20425;-56
2022/01/24 06:21:47;;;;;;;4.40;2.00;;;1.90;99.90;;;;;;5093906;28;20456;-54
2022/01/24 06:24:16;;;;;;;3.63;1.90;;;1.70;99.90;;;;;;5092579;28;20487;-56
2022/01/24 06:26:43;;;;;;;5.18;2.88;;;1.70;99.90;;;;;;5093974;28;20417;-54
2022/01/24 06:29:11;;;;;;;3.53;2.00;;;1.70;99.90;;;;;;5093047;28;20436;-54
2022/01/24 06:31:40;;;;;;;4.93;2.75;;;1.70;99.90;;;;;;5094887;28;20434;-56
2022/01/24 06:34:09;;;;;;;3.72;2.58;;;1.80;99.90;;;;;;5082617;28;20467;-55
2022/01/24 06:36:42;;;;;;;4.50;2.60;;;1.70;99.90;;;;;;5072497;28;20419;-55
2022/01/24 06:39:14;;;;;;;5.43;2.53;;;1.70;99.90;;;;;;5073859;28;20514;-56
2022/01/24 06:41:52;;;;;;;4.37;2.30;;;1.70;99.90;;;;;;5072028;28;20530;-56
2022/01/24 06:44:19;;;;;;;4.63;2.50;;;1.70;99.90;;;;;;5073242;28;20435;-54
2022/01/24 06:46:49;;;;;;;4.80;2.38;;;1.70;99.90;;;;;;5070787;28;20514;-56
2022/01/24 06:49:17;;;;;;;5.57;2.70;;;1.70;99.90;;;;;;5070848;28;20873;-56
2022/01/24 06:51:44;;;;;;;4.47;2.78;;;1.70;99.90;;;;;;5072899;28;20477;-54
2022/01/24 06:54:11;;;;;;;5.32;2.35;;;1.70;99.90;;;;;;5074300;28;20450;-56
2022/01/24 06:56:38;;;;;;;4.55;2.78;;;1.70;99.90;;;;;;5073102;28;20486;-55
2022/01/24 06:59:07;;;;;;;4.50;2.50;;;1.70;99.90;;;;;;5072316;28;20447;-55
2022/01/24 07:01:34;;;;;;;4.05;2.40;;;1.80;99.90;;;;;;5073795;28;20427;-55
2022/01/24 07:04:01;;;;;;;8.70;4.72;;;1.80;99.90;;;;;;5074742;28;20454;-52
2022/01/24 07:06:34;;;;;;;7.60;4.03;;;1.80;99.90;;;;;;5075156;28;20474;-55
2022/01/24 07:09:02;;;;;;;5.75;2.22;;;1.90;99.90;;;;;;5075174;28;20510;-55
2022/01/24 07:11:29;;;;;;;2.75;1.70;;;2.20;99.90;;;;;;5074616;28;20799;-53
2022/01/24 07:13:56;;;;;;;5.05;2.58;;;2.50;99.90;;;;;;5073331;28;20481;-53
2022/01/24 07:16:35;;;;;;;4.45;2.20;;;3.00;99.90;;;;;;5075004;28;20846;-54
2022/01/24 07:19:04;;;;;;;4.47;2.10;;;3.20;99.90;;;;;;5067012;28;20423;-55
2022/01/24 07:21:31;;;;;;;3.40;2.10;;;3.30;99.90;;;;;;5074027;28;20427;-55
2022/01/24 07:24:00;;;;;;;3.83;1.70;;;3.40;99.90;;;;;;5072494;28;20427;-52
2022/01/24 07:26:34;;;;;;;3.35;2.15;;;3.40;99.90;;;;;;5073754;28;20435;-53
2022/01/24 07:29:13;;;;;;;4.20;2.50;;;3.60;99.90;;;;;;5069997;28;20431;-53
2022/01/24 07:31:41;;;;;;;3.88;2.10;;;3.80;99.90;;;;;;5070825;28;21103;-54
2022/01/24 07:34:08;;;;;;;4.50;2.50;;;3.70;99.90;;;;;;5073445;28;20431;-50
2022/01/24 07:36:38;;;;;;;4.28;2.72;;;3.70;99.90;;;;;;5072290;28;20803;-48
2022/01/24 07:39:11;;;;;;;4.60;2.20;;;3.60;99.90;;;;;;5073909;28;20486;-53
2022/01/24 07:41:45;;;;;;;4.57;2.40;;;3.50;99.90;;;;;;5070765;28;20841;-49
2022/01/24 07:44:14;;;;;;;3.95;1.92;;;3.70;99.90;;;;;;5071024;28;20904;-49
2022/01/24 07:46:46;;;;;;;4.93;2.20;;;3.70;99.90;;;;;;5072253;28;20486;-47
2022/01/24 07:49:14;;;;;;;3.35;2.13;;;3.80;99.90;;;;;;5073865;28;20424;-48
2022/01/24 07:51:41;;;;;;;4.65;2.35;;;3.80;99.90;;;;;;5074576;28;20522;-50
2022/01/24 07:54:09;;;;;;;4.47;1.92;;;3.80;99.90;;;;;;5073847;28;20513;-50
2022/01/24 07:56:38;;;;;;;6.80;2.20;;;3.70;99.90;;;;;;5073421;28;20427;-52
2022/01/24 07:59:05;;;;;;;6.15;2.67;;;3.60;99.90;;;;;;5073736;28;20438;-52
2022/01/24 08:01:32;;;;;;;4.65;1.98;;;3.60;99.90;;;;;;5073700;28;20482;-51
2022/01/24 08:04:07;;;;;;;4.18;2.60;;;3.50;99.90;;;;;;5072008;28;20743;-53
2022/01/24 08:06:33;;;;;;;4.80;2.93;;;3.70;99.90;;;;;;5070209;28;20538;-53
2022/01/24 08:09:05;;;;;;;6.10;3.70;;;3.90;99.90;;;;;;5066905;28;20494;-53
2022/01/24 08:11:44;;;;;;;4.23;2.87;;;3.90;99.90;;;;;;5069976;28;20862;-49
2022/01/24 08:14:13;;;;;;;5.57;3.30;;;3.80;99.90;;;;;;5071039;28;20458;-49
2022/01/24 08:16:44;;;;;;;5.32;2.70;;;3.90;99.90;;;;;;5067159;28;20436;-54
2022/01/24 08:19:12;;;;;;;4.63;1.80;;;3.70;99.90;;;;;;5071841;28;20439;-53
2022/01/24 08:21:39;;;;;;;5.00;2.90;;;3.90;99.90;;;;;;5072497;28;20524;-54
2022/01/24 08:24:07;;;;;;;5.07;2.92;;;4.20;99.90;;;;;;5069776;28;20476;-53
2022/01/24 08:26:34;;;;;;;4.30;2.35;;;4.30;99.90;;;;;;5070863;28;20443;-55
2022/01/24 08:29:08;;;;;;;5.60;3.08;;;4.40;99.90;;;;;;5070025;28;20862;-56
2022/01/24 08:31:37;;;;;;;3.53;2.67;;;4.30;99.90;;;;;;5072595;28;20436;-63
2022/01/24 08:34:04;;;;;;;19.02;11.93;;;4.30;99.90;;;;;;5082254;28;20450;-63
2022/01/24 08:36:33;;;;;;;6.13;3.28;;;4.20;99.90;;;;;;5084236;28;20472;-62
2022/01/24 08:39:06;;;;;;;12.43;8.20;;;4.20;99.90;;;;;;5074704;28;20425;-63
2022/01/24 08:41:44;;;;;;;4.63;3.20;;;4.00;99.90;;;;;;5082460;28;20438;-59
2022/01/24 08:44:19;;;;;;;5.07;2.45;;;3.80;99.90;;;;;;5079735;28;20848;-59
2022/01/24 08:46:46;;;;;;;5.60;3.13;;;3.70;99.90;;;;;;5076709;28;20433;-59
2022/01/24 08:49:14;;;;;;;6.32;3.92;;;3.80;99.90;;;;;;5085724;28;20542;-59
2022/01/24 08:51:43;;;;;;;5.60;3.30;;;3.90;99.90;;;;;;5068707;28;20852;-58
2022/01/24 08:54:10;;;;;;;4.70;3.10;;;4.00;99.90;;;;;;5072866;28;20483;-58
2022/01/24 08:56:37;;;;;;;5.73;3.80;;;4.10;99.90;;;;;;5077591;28;20463;-57
2022/01/24 08:59:06;;;;;;;6.72;3.50;;;4.00;99.90;;;;;;5080274;28;20435;-57
2022/01/24 09:01:34;;;;;;;5.70;3.00;;;4.20;99.90;;;;;;5083453;28;20501;-54
2022/01/24 09:04:01;;;;;;;8.55;4.53;;;4.00;99.90;;;;;;5085471;28;20857;-51
2022/01/24 09:06:29;;;;;;;6.30;3.88;;;3.90;99.90;;;;;;5080146;28;20479;-53
2022/01/24 09:09:05;;;;;;;5.78;3.80;;;3.80;99.90;;;;;;5078879;28;20442;-54
2022/01/24 09:11:34;;;;;;;6.10;4.30;;;3.80;99.90;;;;;;5082983;28;20471;-54
2022/01/24 09:14:05;;;;;;;6.65;3.10;;;3.90;99.90;;;;;;5072708;28;20436;-54
2022/01/24 09:16:32;;;;;;;5.95;3.40;;;3.90;99.90;;;;;;5084058;28;20430;-52
2022/01/24 09:19:00;;;;;;;6.28;3.80;;;4.00;99.90;;;;;;5079288;28;20817;-55
2022/01/24 09:21:34;;;;;;;5.17;2.90;;;4.10;99.90;;;;;;5077533;28;20420;-52
2022/01/24 09:24:02;;;;;;;4.07;2.85;;;4.10;99.90;;;;;;5074522;28;20439;-56
2022/01/24 09:26:30;;;;;;;4.03;2.42;;;4.10;99.90;;;;;;5077900;28;20423;-54
2022/01/24 09:29:00;;;;;;;6.05;3.15;;;4.10;99.90;;;;;;5081025;28;20437;-52
2022/01/24 09:31:27;;;;;;;4.45;2.85;;;4.00;99.90;;;;;;5080904;28;20457;-52
2022/01/24 09:33:58;;;;;;;7.13;3.60;;;4.30;99.90;;;;;;5081310;28;20461;-56
2022/01/24 09:36:25;;;;;;;5.95;3.45;;;4.30;99.90;;;;;;5064956;28;20462;-56
2022/01/24 09:38:53;;;;;;;5.13;3.20;;;4.40;99.90;;;;;;5079253;28;20483;-53
2022/01/24 09:41:22;;;;;;;5.05;2.50;;;4.40;99.90;;;;;;5073613;28;20515;-54
2022/01/24 09:43:51;;;;;;;3.58;2.50;;;4.30;99.90;;;;;;5086560;28;20458;-55
2022/01/24 09:46:17;;;;;;;5.30;3.50;;;4.40;99.90;;;;;;5075193;28;20901;-54
2022/01/24 09:48:44;;;;;;;6.57;3.97;;;4.50;99.90;;;;;;5081873;28;20473;-54
2022/01/24 09:51:12;;;;;;;5.78;2.63;;;4.50;99.90;;;;;;5077101;28;20851;-52
2022/01/24 09:53:41;;;;;;;5.50;3.58;;;4.70;99.90;;;;;;5079665;28;20492;-57
2022/01/24 09:56:08;;;;;;;6.65;3.63;;;4.80;99.90;;;;;;5077316;28;20431;-53
2022/01/24 09:58:38;;;;;;;4.20;2.90;;;4.80;99.90;;;;;;5074334;28;20425;-53
2022/01/24 10:01:13;;;;;;;5.80;3.10;;;4.80;99.90;;;;;;5083588;28;20416;-54
2022/01/24 10:04:04;;;;;;;4.30;2.63;;;4.60;99.90;;;;;;5083131;28;20453;-52
2022/01/24 10:09:38;;;;;;;4.82;3.00;;;4.80;99.90;;;;;;5114924;28;20419;-57
2022/01/24 10:12:19;;;;;;;5.50;3.37;;;4.80;99.90;;;;;;5119952;27;20436;-56
2022/01/24 10:17:38;;;;;;;4.53;1.87;;;5.30;99.90;;;;;;5114235;28;20403;-55
2022/01/24 10:20:23;;;;;;;2.50;1.40;;;5.40;99.90;;;;;;5125400;28;20454;-55
2022/01/24 10:23:10;;;;;;;2.13;1.58;;;5.40;99.90;;;;;;5123332;28;20418;-56
2022/01/24 10:25:54;;;;;;;34.17;19.60;;;5.40;99.90;;;;;;5113814;27;20431;-56
2022/01/24 10:28:28;;;;;;;3.05;2.00;;;5.70;99.90;;;;;;5127115;27;20429;-53
2022/01/24 10:31:16;;;;;;;3.17;1.70;;;5.70;99.90;;;;;;5129312;27;20513;-56
2022/01/24 10:33:56;;;;;;;3.60;1.80;;;5.90;99.90;;;;;;5122482;27;20419;-55
2022/01/24 10:36:30;;;;;;;1.92;1.40;;;5.90;99.90;;;;;;5117187;27;20495;-57
2022/01/24 10:39:11;;;;;;;1.70;1.20;;;5.80;99.90;;;;;;5126031;27;20509;-54
2022/01/24 10:41:53;;;;;;;1.92;1.30;;;5.90;99.90;;;;;;5126974;27;20499;-56
2022/01/24 10:44:31;;;;;;;2.03;1.30;;;5.80;99.90;;;;;;5135130;27;20479;-58
2022/01/24 10:47:13;;;;;;;2.33;1.20;;;5.80;99.90;;;;;;5134144;27;20426;-58
2022/01/24 10:49:44;;;;;;;1.83;1.20;;;5.90;99.90;;;;;;5129141;27;20783;-58
2022/01/24 10:52:23;;;;;;;2.78;1.17;;;5.80;99.90;;;;;;5127062;27;20424;-59
2022/01/24 10:54:55;;;;;;;2.70;1.20;;;5.60;99.90;;;;;;5124994;27;20737;-58
2022/01/24 10:57:25;;;;;;;1.70;1.20;;;5.60;99.90;;;;;;5125974;27;20414;-58
2022/01/24 11:00:02;;;;;;;2.00;1.00;;;5.50;99.90;;;;;;5131370;27;20813;-58
2022/01/24 11:02:35;;;;;;;1.90;1.10;;;5.50;99.90;;;;;;5122269;27;20483;-58
2022/01/24 11:05:31;;;;;;;2.00;1.00;;;5.70;99.90;;;;;;5127265;27;20422;-58
2022/01/24 11:08:02;;;;;;;1.80;1.00;;;5.70;99.90;;;;;;5110132;27;20437;-59
2022/01/24 11:10:38;;;;;;;1.60;1.00;;;5.70;99.90;;;;;;5132146;27;20443;-58
2022/01/24 11:13:19;;;;;;;2.10;1.10;;;6.00;99.90;;;;;;5116346;28;20927;-58
2022/01/24 11:15:55;;;;;;;1.60;0.90;;;6.10;99.90;;;;;;5115967;28;20420;-58
2022/01/24 11:18:27;;;;;;;1.60;0.98;;;6.40;99.90;;;;;;5116497;27;20475;-59
2022/01/24 11:21:02;;;;;;;2.57;1.10;;;6.70;99.90;;;;;;5132530;27;20548;-59
2022/01/24 11:23:39;;;;;;;2.20;1.10;;;6.70;99.90;;;;;;5124333;27;20901;-57
2022/01/24 11:26:11;;;;;;;1.80;1.00;;;6.70;99.90;;;;;;5129602;27;20782;-57
2022/01/24 11:28:41;;;;;;;2.63;1.10;;;6.70;99.90;;;;;;5130219;27;20505;-57
2022/01/24 11:31:26;;;;;;;1.95;0.90;;;6.70;99.90;;;;;;5123773;27;20435;-57
2022/01/24 11:34:03;;;;;;;1.70;1.00;;;6.30;99.90;;;;;;5126247;27;20891;-57
2022/01/24 11:36:37;;;;;;;1.80;0.90;;;6.20;99.90;;;;;;5126615;27;20462;-56
2022/01/24 11:39:25;;;;;;;1.83;1.00;;;5.90;99.90;;;;;;5124428;27;20537;-57
2022/01/24 11:41:56;;;;;;;2.10;1.00;;;5.80;99.90;;;;;;5126177;27;20414;-59
2022/01/24 11:44:27;;;;;;;2.10;1.10;;;5.80;99.90;;;;;;5118795;27;20440;-56
2022/01/24 11:47:00;;;;;;;1.80;0.80;;;5.70;99.90;;;;;;5129289;27;20450;-57
2022/01/24 11:49:38;;;;;;;1.80;1.33;;;5.70;99.90;;;;;;5121829;27;20497;-57
2022/01/24 11:52:11;;;;;;;10.67;5.70;;;5.80;99.90;;;;;;5121863;27;20432;-55
2022/01/24 11:54:49;;;;;;;2.60;1.20;;;5.90;99.90;;;;;;5131866;27;20419;-58
2022/01/24 11:57:27;;;;;;;1.30;0.90;;;6.20;99.90;;;;;;5111799;28;20520;-58
2022/01/24 12:00:18;;;;;;;1.35;0.88;;;6.30;99.90;;;;;;5130411;27;20911;-57
2022/01/24 12:02:47;;;;;;;1.98;1.15;;;6.50;99.90;;;;;;5129210;27;20495;-58
2022/01/24 12:05:16;;;;;;;3.10;1.60;;;6.60;99.90;;;;;;5125948;27;20450;-57
2022/01/24 12:07:46;;;;;;;2.50;1.40;;;6.70;99.90;;;;;;5129853;27;20458;-57
2022/01/24 12:10:37;;;;;;;2.10;1.30;;;6.90;99.90;;;;;;5132708;27;20511;-57
2022/01/24 12:13:09;;;;;;;2.63;1.20;;;7.10;99.90;;;;;;5124810;27;20811;-57
2022/01/24 12:15:56;;;;;;;2.33;1.23;;;7.30;99.90;;;;;;5121664;27;21125;-58
2022/01/24 12:19:00;;;;;;;2.17;1.30;;;7.20;99.90;;;;;;5120509;27;20452;-57
2022/01/24 12:21:30;;;;;;;1.70;1.00;;;7.10;99.90;;;;;;5120360;27;20444;-57
2022/01/24 12:24:00;;;;;;;4.30;1.40;;;7.10;99.90;;;;;;5125077;27;20442;-58
2022/01/24 12:26:33;;;;;;;1.75;1.10;;;7.20;99.90;;;;;;5127206;27;20502;-58
2022/01/24 12:29:09;;;;;;;2.40;1.10;;;7.20;99.90;;;;;;5112746;28;20716;-59
2022/01/24 12:31:42;;;;;;;2.20;1.10;;;7.30;99.90;;;;;;5127525;27;20495;-58
2022/01/24 12:34:39;;;;;;;3.40;1.17;;;7.40;99.90;;;;;;5094554;27;20437;-58
2022/01/24 12:37:19;;;;;;;1.50;1.00;;;7.40;99.90;;;;;;5092064;28;20449;-57
2022/01/24 12:39:57;;;;;;;1.60;1.08;;;7.50;99.90;;;;;;5087973;28;20450;-57
2022/01/24 12:48:16;;;;;;;2.43;1.10;;;7.40;99.90;;;;;;5092247;28;20567;-58
2022/01/24 12:50:48;;;;;;;1.80;1.00;;;7.50;99.90;;;;;;5085916;28;20505;-58
2022/01/24 12:53:17;;;;;;;5.35;1.00;;;7.60;99.90;;;;;;5093743;28;20469;-58
2022/01/24 12:55:57;;;;;;;2.05;1.20;;;7.70;99.90;;;;;;5092363;28;20966;-58
2022/01/24 12:58:31;;;;;;;1.97;1.00;;;7.80;99.90;;;;;;5093396;28;21108;-57
2022/01/24 13:00:59;;;;;;;1.70;0.93;;;7.90;99.90;;;;;;5092840;28;20456;-59
2022/01/24 13:03:26;;;;;;;2.58;1.00;;;7.90;99.90;;;;;;5092250;28;20461;-57
2022/01/24 13:05:53;;;;;;;1.45;0.95;;;7.90;99.90;;;;;;5090023;28;20516;-57
2022/01/24 13:09:16;;;;;;;1.30;0.90;;;8.00;99.90;;;;;;5092560;28;20884;-57
2022/01/24 13:11:49;;;;;;;1.70;0.93;;;7.90;99.90;;;;;;5088778;28;20437;-56
2022/01/24 13:14:22;;;;;;;2.63;0.90;;;8.10;99.90;;;;;;5090043;28;20837;-58
2022/01/24 13:22:43;;;;;;;4.32;1.88;;;8.00;99.90;;;;;;5011346;28;20411;-58
2022/01/24 13:25:14;;;;;;;2.30;1.30;;;8.00;99.90;;;;;;5052564;28;20449;-58
2022/01/24 13:27:45;;;;;;;1.52;0.80;;;8.00;99.90;;;;;;5090949;28;20434;-57
2022/01/24 13:30:14;;;;;;;1.40;0.80;;;8.20;99.90;;;;;;5089787;28;20910;-58
2022/01/24 13:32:51;;;;;;;3.37;1.00;;;8.20;99.90;;;;;;5090991;28;20462;-57
2022/01/24 13:35:27;;;;;;;1.30;0.80;;;8.30;99.90;;;;;;5089569;28;20500;-55
2022/01/24 13:37:57;;;;;;;1.35;0.80;;;8.20;99.90;;;;;;5087047;28;20434;-59
2022/01/24 13:40:42;;;;;;;1.42;0.80;;;8.10;99.90;;;;;;5090159;28;20462;-59
2022/01/24 13:43:11;;;;;;;1.77;0.70;;;8.10;99.90;;;;;;5085679;28;20479;-61
2022/01/24 13:45:39;;;;;;;2.10;0.80;;;8.20;99.90;;;;;;5092383;28;20772;-59
2022/01/24 13:48:17;;;;;;;1.70;0.90;;;8.10;99.90;;;;;;5091462;28;20461;-61
2022/01/24 13:50:50;;;;;;;1.90;0.80;;;8.00;99.90;;;;;;5089499;28;20466;-62
2022/01/24 13:53:30;;;;;;;1.70;0.70;;;8.00;99.90;;;;;;5091215;28;20513;-59
2022/01/24 13:55:58;;;;;;;2.10;0.80;;;8.10;99.90;;;;;;5086904;28;20957;-60
2022/01/24 13:58:25;;;;;;;2.00;0.80;;;8.10;99.90;;;;;;5085489;28;20733;-60
2022/01/24 14:00:58;;;;;;;1.65;0.70;;;8.00;99.90;;;;;;5090476;28;20478;-58
2022/01/24 14:03:26;;;;;;;3.30;0.70;;;8.10;99.90;;;;;;5092280;28;20512;-59
2022/01/24 14:06:14;;;;;;;1.40;0.70;;;8.00;99.90;;;;;;5090469;28;20783;-60
2022/01/24 14:08:41;;;;;;;1.88;0.90;;;8.00;99.90;;;;;;5089116;28;20433;-59
2022/01/24 14:11:14;;;;;;;1.10;0.80;;;8.10;99.90;;;;;;5089184;28;20417;-60
2022/01/24 14:13:47;;;;;;;1.20;0.70;;;8.10;99.90;;;;;;5086168;28;20538;-61
2022/01/24 14:16:35;;;;;;;2.00;0.80;;;8.00;99.90;;;;;;5089550;28;20751;-61
2022/01/24 14:19:04;;;;;;;2.83;0.70;;;8.00;99.90;;;;;;5081623;28;20440;-60
2022/01/24 14:21:31;;;;;;;2.47;0.80;;;8.00;99.90;;;;;;5090387;28;20462;-61
2022/01/24 14:24:00;;;;;;;1.75;0.73;;;7.90;99.90;;;;;;5089301;28;20438;-61
2022/01/24 14:26:30;;;;;;;1.63;0.80;;;7.80;99.90;;;;;;5089631;28;20857;-62
2022/01/24 14:29:07;;;;;;;1.27;0.80;;;7.70;99.90;;;;;;5089666;28;20453;-62
2022/01/24 14:31:34;;;;;;;2.65;0.70;;;7.60;99.90;;;;;;5089398;28;20506;-62
2022/01/24 14:34:04;;;;;;;1.02;0.80;;;7.50;99.90;;;;;;5089086;28;20674;-63
2022/01/24 14:36:31;;;;;;;1.27;0.70;;;7.40;99.90;;;;;;5088547;28;20520;-63
2022/01/24 14:39:00;;;;;;;1.80;0.70;;;7.30;99.90;;;;;;5089462;28;20495;-60
2022/01/24 14:41:34;;;;;;;2.90;0.70;;;7.30;99.90;;;;;;5089454;28;20518;-60
2022/01/24 14:46:48;;;;;;;1.17;0.80;;;7.60;99.90;;;;;;5090951;28;20586;-60
2022/01/24 14:49:19;;;;;;;2.42;0.93;;;7.50;99.90;;;;;;5090961;28;20513;-62